AIRPORT_AIRPORT_METAR
METAR FOR LWSK
ADDS - METARS form results

(2246 UTC 06 December 2019)
Data provider http://aviationweather.gov/metar/data/
 
METAR text: LWSK 062230Z 00000KT 9999 -RA SCT033 BKN073 01/M00 Q1025 NOSIG
Conditions at: LWSK (SKOPJE/PETROVAC , MK) observed 2230 UTC 06 December 2019
Temperature: 1.0°C (34°F)
Dewpoint: 0.0°C (32°F) [RH = 93%]
Pressure (altimeter): 30.27 inches Hg (1025.0 mb)
Winds: calm
Visibility: 6 or more miles (10+ km)
Ceiling: 7300 feet AGL
Clouds: scattered clouds at 3300 feet AGL
broken clouds at 7300 feet AGL
Weather: -RA  (light rain)

METAR text: LWSK 062200Z 00000KT 9999 BKN100 01/M00 Q1025 NOSIG
Conditions at: LWSK (SKOPJE/PETROVAC , MK) observed 2200 UTC 06 December 2019
Temperature: 1.0°C (34°F)
Dewpoint: 0.0°C (32°F) [RH = 93%]
Pressure (altimeter): 30.27 inches Hg (1025.0 mb)
Winds: calm
Visibility: 6 or more miles (10+ km)
Ceiling: 10000 feet AGL
Clouds: broken clouds at 10000 feet AGL
Weather: no significant weather observed at this time

Forecast for: LWSK (SKOPJE/PETROVAC , MK)
Text: TAF LWSK 061730Z 0618/0718 VRB02KT 9999 FEW050 SCT100
Forecast period: 1800 UTC 06 December 2019 to 1800 UTC 07 December 2019
Forecast type: FROM: standard forecast or significant change
Winds: variable direction winds at 2 MPH (2 knots; 1.0 m/s)
Visibility: 6 or more miles 10+ km)
Ceiling: at least 12,000 feet AGL
Clouds: few clouds at 5000 feet AGL
scattered clouds at 10000 feet AGL
Weather: no significant weather forecast for this period
Text: TEMPO 0622/0706 RA SCT020 OVC040
Forecast period: 2200 UTC 06 December 2019 to 0600 UTC 07 December 2019
Forecast type: TEMPORARY: The following changes expected for less than half the time period
Visibility: missing
Ceiling: 4000 feet AGL
Clouds: scattered clouds at 2000 feet AGL
overcast cloud deck at 4000 feet AGL
Weather: RA  (moderate rain)

 AIRPORT_AIRPORT_MAP

 AIRPORT_RUNWAY_INFO
AIRPORT_RUNWAY 16 AIRPORT_RUNWAY_LENGTH 8038 ft AIRPORT_RUNWAY_WIDTH 140 ft
AIRPORT_RUNWAY_ELEVATION 781 ft AIRPORT_RUNWAY_THRESHOLD 0 ft AIRPORT_RUNWAY_HEADING 165
AIRPORT_RUNWAY 34 AIRPORT_RUNWAY_LENGTH 8038 ft AIRPORT_RUNWAY_WIDTH 140 ft
AIRPORT_RUNWAY_ELEVATION 768 ft AIRPORT_RUNWAY_THRESHOLD 0 ft AIRPORT_RUNWAY_HEADING 345

 AIRPORT_AIRPORT_FREQUENCIES
AIRPORT_AIRPORT_NAVAIDS_TYPE APP AIRPORT_AIRPORT_NAVAIDS_NAME APP AIRPORT_AIRPORT_NAVAIDS_FREQ 120.3 MHZ
AIRPORT_AIRPORT_NAVAIDS_TYPE ATIS AIRPORT_AIRPORT_NAVAIDS_NAME ATIS AIRPORT_AIRPORT_NAVAIDS_FREQ 130.125 MHZ
AIRPORT_AIRPORT_NAVAIDS_TYPE TWR AIRPORT_AIRPORT_NAVAIDS_NAME TWR AIRPORT_AIRPORT_NAVAIDS_FREQ 118.5 MHZ

 AIRPORT_AIRPORT_NAVAIDS
AIRPORT_AIRPORT_NAVAIDS_TYPE NDB AIRPORT_AIRPORT_NAVAIDS_NAME Skopje AIRPORT_AIRPORT_NAVAIDS_FREQ 442 KHZ
AIRPORT_AIRPORT_NAVAIDS_TYPE VOR-DME AIRPORT_AIRPORT_NAVAIDS_NAME Sinko AIRPORT_AIRPORT_NAVAIDS_FREQ 111450 KHZ
AIRPORT_AIRPORT_NAVAIDS_TYPE VOR-DME AIRPORT_AIRPORT_NAVAIDS_NAME Skopje AIRPORT_AIRPORT_NAVAIDS_FREQ 112800 KHZ



Copyright © 2005-2019 - Virtuel Air Alsace - Tous droits réservés